Flag for USA

Past Weather in 43°01'02.9"N, 88°28'04.9"W, USA — Yesterday and Last 2 Weeks

Currently: 63 °F. Passing clouds. (Weather station: Waukesha County Airport, USA). See more current weather

Past Weather in 43°01'02.9"N, 88°28'04.9"W — Graph

°F

43°01'02.9"N, 88°28'04.9"W Temperature Yesterday

Maximum temperature yesterday: 77 °F (at 4:45 pm)
Minimum temperature yesterday: 43 °F (at 12:55 am)
Average temperature yesterday: 59 °F

High & Low Weather Summary for the Past Weeks

 TemperatureHumidityPressure
High90 °F (May 12, 4:45 pm)100% (May 5, 4:35 am)30.18 "Hg (May 5, 4:35 am)
Low32 °F (May 5, 3:55 am)19% (May 14, 4:45 pm)29.39 "Hg (May 19, 11:35 pm)
Average59 °F65%29.94 "Hg
* Reported May 5 2:15 am — May 20 2:35 am, 43°01'02.9"N, 88°28'04.9"W. Weather by CustomWeather, © 2022

Note: Actual official high and low records may vary slightly from our data, if they occured in-between our weather recording intervals... More about our weather records

43°01'02.9"N, 88°28'04.9"W Weather History for the Previous 24 Hours

Scroll right to see more
 ConditionsComfort  
Time TempWeatherWind HumidityBarometerVisibility
2:35 am
Fri, May 20
63 °FClear.N/A77%29.42 "Hg10 mi
1:35 am66 °FClear.N/A78%29.46 "Hg10 mi
1:15 am68 °FClear.N/A73%29.48 "Hg10 mi
12:55 am68 °FClear.7 mph69%29.43 "Hg10 mi
12:15 am70 °FClear.9 mph60%29.41 "Hg10 mi
11:55 pm
Thu, May 19
70 °FClear.10 mph60%29.41 "Hg10 mi
11:35 pm72 °FClear.10 mph57%29.39 "Hg10 mi
11:15 pm72 °FClear.13 mph57%29.40 "Hg10 mi
10:55 pm72 °FClear.8 mph57%29.41 "Hg10 mi
10:35 pm70 °FClear.N/A57%29.41 "Hg10 mi
10:15 pm68 °FClear.5 mph56%29.42 "Hg10 mi
9:35 pm64 °FClear.N/A68%29.41 "Hg10 mi
9:15 pm66 °FClear.N/A64%29.42 "Hg10 mi
8:45 pm66 °FClear.6 mph68%29.41 "Hg10 mi
7:45 pm70 °FSunny.6 mph60%29.44 "Hg10 mi
6:45 pm73 °FSunny.8 mph61%29.46 "Hg10 mi
5:45 pm77 °FSunny.9 mph51%29.48 "Hg10 mi
4:45 pm77 °FSunny.9 mph44%29.52 "Hg10 mi
3:45 pm72 °FSunny.6 mph57%29.57 "Hg10 mi
3:00 pm70 °FScattered clouds.6 mph64%29.59 "Hg10 mi
1:45 pm70 °FBroken clouds.7 mph60%29.61 "Hg10 mi
12:45 pm70 °FBroken clouds.8 mph64%29.66 "Hg10 mi
11:45 am70 °FSunny.No wind64%29.65 "Hg10 mi
10:45 am68 °FSunny.No wind69%29.65 "Hg10 mi
9:45 am64 °FScattered clouds.6 mph78%29.67 "Hg10 mi
8:45 am59 °FFog.5 mph94%29.68 "Hg5 mi
8:05 am55 °FFog.6 mph100%29.67 "Hg4 mi
6:45 am52 °FFog.6 mph100%29.67 "Hg2 mi
5:45 am48 °FFog.5 mph100%29.68 "Hg2 mi
5:35 am48 °FFog.No wind100%29.68 "Hg2 mi
5:15 am48 °FFog.N/A100%29.68 "Hg3 mi
4:55 am46 °FFog.N/A100%29.70 "Hg4 mi
4:35 am46 °FFog.No wind100%29.70 "Hg5 mi
4:15 am46 °FFog.6 mph100%29.70 "Hg5 mi
3:35 am46 °FFog.5 mph100%29.71 "Hg4 mi
3:15 am46 °FFog.N/A100%29.70 "Hg4 mi
Weather by CustomWeather, © 2022

See weather overview